Time;durP1;ratioP1;P1;durP2;ratioP2;P2;SDS_P1;SDS_P2;PMS_P1;PMS_P2;Temp;Humidity;BMP_temperature;BMP_pressure;BME280_temperature;BME280_humidity;BME280_pressure;Samples;Min_cycle;Max_cycle;Signal;HPM_P1;HPM_P2
2021/09/22 00:00:15;;;;;;;6.88;5.38;;;;;;;19.98;51.57;100107.59;5071425;28;20640;-76
2021/09/22 00:02:41;;;;;;;6.10;5.40;;;;;;;19.97;51.68;100102.44;5071142;28;20012;-76
2021/09/22 00:05:08;;;;;;;5.88;5.38;;;;;;;19.92;52.31;100086.22;5071109;28;20451;-75
2021/09/22 00:07:33;;;;;;;6.25;5.20;;;;;;;19.78;52.46;100071.34;5071480;28;20024;-75
2021/09/22 00:09:59;;;;;;;5.40;4.90;;;;;;;19.71;52.56;100074.13;5071413;28;20028;-75
2021/09/22 00:12:25;;;;;;;6.50;4.88;;;;;;;19.68;52.93;100064.66;5071210;28;20099;-76
2021/09/22 00:14:50;;;;;;;5.90;4.95;;;;;;;19.82;53.10;100085.94;5070955;28;20027;-75
2021/09/22 00:17:16;;;;;;;5.68;5.10;;;;;;;19.84;53.11;100079.31;5071152;28;20024;-75
2021/09/22 00:19:41;;;;;;;6.05;5.55;;;;;;;19.76;52.91;100070.75;5071316;28;20047;-76
2021/09/22 00:22:08;;;;;;;5.72;5.00;;;;;;;19.63;52.35;100044.97;5072625;28;20024;-76
2021/09/22 00:24:33;;;;;;;6.82;5.20;;;;;;;19.50;52.25;100020.97;5075220;28;20405;-75
2021/09/22 00:26:58;;;;;;;5.00;4.60;;;;;;;19.87;52.03;100088.75;5075189;28;20018;-76
2021/09/22 00:29:26;;;;;;;5.53;4.50;;;;;;;19.84;51.43;100078.50;5075160;28;20115;-75
2021/09/22 00:31:51;;;;;;;6.03;5.25;;;;;;;19.81;51.66;100079.75;5075089;28;20103;-76
2021/09/22 00:34:17;;;;;;;5.38;4.97;;;;;;;19.78;51.63;100082.91;5074768;28;20097;-75
2021/09/22 00:36:43;;;;;;;6.85;5.57;;;;;;;19.66;51.83;100072.13;5073523;28;20020;-76
2021/09/22 00:39:09;;;;;;;6.57;5.07;;;;;;;19.72;51.90;100082.97;5074751;28;20020;-75
2021/09/22 00:41:34;;;;;;;5.35;4.95;;;;;;;19.38;51.57;100026.28;5074853;28;20029;-75
2021/09/22 00:44:00;;;;;;;5.78;5.28;;;;;;;19.04;51.10;99974.94;5074711;28;20055;-75
2021/09/22 00:46:26;;;;;;;5.85;4.80;;;;;;;19.64;51.24;100106.34;5074883;28;20089;-75
2021/09/22 00:48:51;;;;;;;5.45;4.95;;;;;;;19.64;51.37;100076.88;5074784;28;20429;-76
2021/09/22 00:51:17;;;;;;;5.88;5.10;;;;;;;19.65;51.38;100075.03;5074784;28;20408;-75
2021/09/22 00:53:42;;;;;;;6.95;5.75;;;;;;;19.62;51.61;100073.59;5074614;28;20102;-76
2021/09/22 00:56:08;;;;;;;7.75;5.80;;;;;;;19.61;51.58;100076.50;5074509;28;20020;-76
2021/09/22 00:58:33;;;;;;;5.82;5.32;;;;;;;19.13;51.89;100014.78;5074977;28;20025;-76
2021/09/22 01:00:59;;;;;;;5.90;5.40;;;;;;;19.46;52.63;100074.16;5074708;28;20036;-75
2021/09/22 01:03:25;;;;;;;5.75;5.25;;;;;;;19.49;52.58;100067.56;5074471;28;20515;-76
2021/09/22 01:05:52;;;;;;;6.10;5.60;;;;;;;19.48;52.83;100065.91;5074159;28;20107;-75
2021/09/22 01:08:18;;;;;;;6.15;5.65;;;;;;;19.47;53.00;100067.78;5074448;28;20020;-75
2021/09/22 01:10:47;;;;;;;5.53;5.03;;;;;;;19.51;52.98;100060.94;5074366;28;20032;-74
2021/09/22 01:13:14;;;;;;;6.53;5.97;;;;;;;19.46;52.80;100084.06;5074451;28;20097;-75
2021/09/22 01:15:43;;;;;;;6.20;5.60;;;;;;;19.32;52.91;100052.06;5074328;28;20103;-75
2021/09/22 01:18:13;;;;;;;6.32;5.72;;;;;;;19.39;52.83;100065.38;5074159;28;20549;-75
2021/09/22 01:20:40;;;;;;;6.80;6.20;;;;;;;19.40;52.72;100060.84;5074129;28;20024;-76
2021/09/22 01:23:08;;;;;;;5.80;5.32;;;;;;;19.37;52.73;100067.47;5074096;28;20408;-80
2021/09/22 01:25:38;;;;;;;6.15;5.55;;;;;;;19.28;52.47;100066.09;5073828;28;20508;-81
2021/09/22 01:28:04;;;;;;;6.40;5.27;;;;;;;19.26;52.47;100044.91;5073980;28;20416;-81
2021/09/22 01:30:31;;;;;;;5.55;5.05;;;;;;;19.19;52.45;100027.28;5074194;28;20499;-81
2021/09/22 01:32:59;;;;;;;7.47;6.10;;;;;;;19.22;52.33;100024.97;5073426;28;20119;-81
2021/09/22 01:35:27;;;;;;;5.70;5.07;;;;;;;19.33;52.01;100042.19;5073934;28;20031;-81
2021/09/22 01:37:52;;;;;;;7.15;5.68;;;;;;;18.84;52.09;99971.63;5073783;28;20077;-81
2021/09/22 01:40:19;;;;;;;7.72;5.47;;;;;;;19.27;51.89;100038.50;5073650;28;20032;-81
2021/09/22 01:42:46;;;;;;;5.78;5.22;;;;;;;19.17;51.46;100013.28;5073730;28;20024;-81
2021/09/22 01:45:14;;;;;;;11.73;6.20;;;;;;;18.94;51.30;99979.97;5073561;28;20032;-81
2021/09/22 01:47:41;;;;;;;7.30;5.93;;;;;;;19.20;51.31;100024.38;5073943;28;20039;-81
2021/09/22 01:50:12;;;;;;;5.90;5.18;;;;;;;19.12;51.42;100007.78;5073670;28;20506;-81
2021/09/22 01:52:38;;;;;;;8.65;5.57;;;;;;;19.30;51.30;100053.31;5073737;28;20028;-81
2021/09/22 01:55:05;;;;;;;8.35;5.82;;;;;;;19.27;51.22;100021.63;5073665;28;20025;-81
2021/09/22 01:57:31;;;;;;;6.68;5.38;;;;;;;18.96;51.16;99963.69;5073668;28;20029;-81
2021/09/22 01:59:56;;;;;;;7.30;5.68;;;;;;;19.40;51.18;100023.38;5073391;28;20024;-81
2021/09/22 02:02:22;;;;;;;8.02;5.07;;;;;;;19.43;51.11;100018.38;5073349;28;20063;-81
2021/09/22 02:04:47;;;;;;;6.18;5.07;;;;;;;19.11;51.03;99968.69;5073206;28;20036;-81
2021/09/22 02:07:12;;;;;;;7.18;5.43;;;;;;;18.79;50.92;99914.50;5073352;28;20082;-81
2021/09/22 02:09:38;;;;;;;6.45;5.72;;;;;;;19.39;50.96;100019.06;5073335;28;20413;-81
2021/09/22 02:12:04;;;;;;;6.90;5.53;;;;;;;19.24;50.82;99998.78;5073255;28;20389;-81
2021/09/22 02:14:29;;;;;;;8.05;5.43;;;;;;;19.23;50.66;100007.88;5073117;28;20092;-81
2021/09/22 02:16:55;;;;;;;7.22;6.15;;;;;;;18.54;50.94;99896.59;5071870;28;20374;-81
2021/09/22 02:19:21;;;;;;;8.98;5.72;;;;;;;19.38;50.71;100020.09;5072815;28;20020;-81
2021/09/22 02:21:47;;;;;;;8.23;6.47;;;;;;;19.29;50.27;100006.16;5072941;28;20463;-82
2021/09/22 02:24:13;;;;;;;9.18;5.90;;;;;;;19.29;50.46;100008.84;5072715;28;20025;-81
2021/09/22 02:26:38;;;;;;;8.50;6.53;;;;;;;18.66;50.36;99902.06;5072918;28;20531;-81
2021/09/22 02:29:04;;;;;;;10.65;7.68;;;;;;;18.86;50.24;99933.97;5072438;28;20024;-81
2021/09/22 02:31:29;;;;;;;10.93;7.60;;;;;;;18.79;50.03;99917.16;5072665;28;20033;-81
2021/09/22 02:33:55;;;;;;;9.05;7.10;;;;;;;19.35;49.87;100011.47;5072654;28;20507;-81
2021/09/22 02:36:20;;;;;;;9.48;7.75;;;;;;;19.35;50.08;100011.47;5072688;28;20032;-81
2021/09/22 02:38:46;;;;;;;7.45;5.97;;;;;;;19.16;49.87;99984.88;5072853;28;20108;-81
2021/09/22 02:41:11;;;;;;;8.32;6.05;;;;;;;18.67;50.42;99912.56;5072666;28;20025;-81
2021/09/22 02:43:37;;;;;;;6.70;6.00;;;;;;;19.33;49.84;100015.41;5072445;28;20030;-81
2021/09/22 02:46:02;;;;;;;8.45;6.47;;;;;;;18.56;49.84;99899.84;5071512;28;20405;-81
2021/09/22 02:48:28;;;;;;;9.65;6.25;;;;;;;19.07;49.70;99967.50;5072291;28;20090;-81
2021/09/22 02:50:53;;;;;;;12.13;6.55;;;;;;;19.37;49.63;100019.28;5072219;28;20024;-81
2021/09/22 02:53:19;;;;;;;7.97;5.70;;;;;;;19.20;49.49;99991.44;5072370;28;20024;-81
2021/09/22 02:55:45;;;;;;;10.27;6.22;;;;;;;19.24;49.43;99997.97;5072379;28;20027;-81
2021/09/22 02:58:10;;;;;;;7.95;6.15;;;;;;;19.20;49.37;99989.56;5072090;28;20021;-81
2021/09/22 03:00:36;;;;;;;12.65;6.90;;;;;;;19.35;49.28;100018.69;5072303;28;20024;-81
2021/09/22 03:03:02;;;;;;;6.63;5.93;;;;;;;19.34;49.33;100027.75;5072187;28;20070;-81
2021/09/22 03:05:27;;;;;;;8.57;6.68;;;;;;;19.32;49.28;100032.47;5070800;28;20028;-81
2021/09/22 03:07:53;;;;;;;9.88;7.35;;;;;;;18.86;49.02;99968.75;5072179;28;20131;-81
2021/09/22 03:10:19;;;;;;;11.27;7.80;;;;;;;18.88;48.89;99980.03;5071994;28;20036;-82
2021/09/22 03:12:45;;;;;;;10.65;6.93;;;;;;;18.49;49.01;99923.16;5072005;28;20060;-81
2021/09/22 03:15:11;;;;;;;8.20;7.32;;;;;;;19.27;48.81;100033.16;5072266;28;20025;-81
2021/09/22 03:17:37;;;;;;;8.75;7.85;;;;;;;18.23;48.92;99861.94;5071937;28;20098;-81
2021/09/22 03:20:03;;;;;;;8.98;8.10;;;;;;;19.29;48.40;100025.72;5071650;28;20032;-81
2021/09/22 03:22:29;;;;;;;10.15;8.02;;;;;;;19.17;48.41;100010.63;5072034;28;20107;-81
2021/09/22 03:24:54;;;;;;;10.18;8.82;;;;;;;18.52;48.26;99905.88;5071591;28;20115;-75
2021/09/22 03:27:20;;;;;;;9.75;8.70;;;;;;;18.76;48.09;99942.50;5071504;28;20025;-76
2021/09/22 03:29:45;;;;;;;8.90;7.72;;;;;;;19.22;48.00;100014.25;5071500;28;20024;-75
2021/09/22 03:32:11;;;;;;;9.48;8.50;;;;;;;19.16;47.76;99999.09;5070181;28;20493;-75
2021/09/22 03:34:36;;;;;;;9.50;8.55;;;;;;;19.30;47.52;100008.59;5071657;28;20117;-76
2021/09/22 03:37:02;;;;;;;11.23;8.88;;;;;;;19.02;47.23;99952.09;5071554;28;20473;-76
2021/09/22 03:39:27;;;;;;;10.07;8.98;;;;;;;19.24;46.75;99989.94;5071774;28;20028;-76
2021/09/22 03:41:53;;;;;;;10.13;9.05;;;;;;;19.03;46.71;99959.09;5071410;28;20016;-76
2021/09/22 03:44:18;;;;;;;10.98;9.85;;;;;;;18.66;46.75;99902.06;5071567;28;20469;-76
2021/09/22 03:46:43;;;;;;;12.32;9.82;;;;;;;18.52;46.67;99879.94;5071600;28;20032;-75
2021/09/22 03:49:09;;;;;;;10.45;9.45;;;;;;;19.17;46.85;99991.88;5071434;28;20032;-76
2021/09/22 03:51:34;;;;;;;10.68;8.85;;;;;;;19.26;46.66;100007.41;5071560;28;20024;-75
2021/09/22 03:54:00;;;;;;;10.18;8.90;;;;;;;19.24;46.55;100014.84;5071638;28;20024;-75
2021/09/22 03:56:25;;;;;;;12.43;9.25;;;;;;;19.27;46.62;100008.25;5071464;28;20500;-76
2021/09/22 03:58:50;;;;;;;13.30;10.38;;;;;;;19.15;46.71;99991.28;5071344;28;20475;-75
2021/09/22 04:01:16;;;;;;;12.43;9.95;;;;;;;19.22;46.64;100002.75;5071206;28;20062;-75
2021/09/22 04:03:42;;;;;;;11.00;9.88;;;;;;;19.27;46.60;100000.22;5071160;28;20070;-75
2021/09/22 04:06:08;;;;;;;10.77;9.30;;;;;;;19.29;46.57;100006.97;5071194;28;20036;-76
2021/09/22 04:08:33;;;;;;;11.80;10.30;;;;;;;19.15;46.67;99980.56;5071289;28;20028;-75
2021/09/22 04:10:58;;;;;;;11.55;9.85;;;;;;;19.25;46.59;99988.91;5071297;28;20389;-75
2021/09/22 04:13:24;;;;;;;13.07;10.40;;;;;;;19.15;46.53;99964.53;5071316;28;20111;-76
2021/09/22 04:15:49;;;;;;;10.40;9.30;;;;;;;19.15;46.43;99969.88;5071107;28;20034;-76
2021/09/22 04:18:15;;;;;;;10.10;9.13;;;;;;;18.88;46.63;99926.53;5071183;28;20025;-76
2021/09/22 04:20:40;;;;;;;11.95;9.73;;;;;;;19.22;46.49;99978.66;5071083;28;20048;-75
2021/09/22 04:23:06;;;;;;;10.80;9.50;;;;;;;19.31;46.62;99988.00;5071106;28;20090;-81
2021/09/22 04:25:31;;;;;;;12.50;9.00;;;;;;;18.97;46.47;99939.41;5070885;28;20480;-81
2021/09/22 04:27:56;;;;;;;11.40;10.20;;;;;;;19.04;46.42;99950.03;5070948;28;20040;-81
2021/09/22 04:30:22;;;;;;;11.48;9.88;;;;;;;19.13;46.42;99970.09;5069738;28;20054;-81
2021/09/22 04:32:47;;;;;;;11.65;9.65;;;;;;;18.86;46.42;99918.72;5069820;28;20028;-81
2021/09/22 04:35:13;;;;;;;11.88;9.90;;;;;;;19.19;46.47;99965.72;5071077;28;20048;-81
2021/09/22 04:37:40;;;;;;;12.52;10.05;;;;;;;19.17;46.44;99967.78;5071020;28;20021;-81
2021/09/22 04:40:09;;;;;;;12.63;10.43;;;;;;;19.24;46.60;99989.94;5071072;28;20112;-81
2021/09/22 04:42:35;;;;;;;11.40;10.23;;;;;;;19.25;46.50;99988.91;5069692;28;20024;-81
2021/09/22 04:45:01;;;;;;;13.50;11.18;;;;;;;19.26;46.43;99985.19;5071021;28;20021;-81
2021/09/22 04:47:27;;;;;;;11.05;9.90;;;;;;;19.09;46.43;99963.56;5070822;28;20025;-81
2021/09/22 04:49:55;;;;;;;11.25;9.98;;;;;;;18.52;46.02;99881.78;5070994;28;20032;-81
2021/09/22 04:52:20;;;;;;;12.75;9.82;;;;;;;19.21;46.30;99980.50;5071138;28;20086;-81
2021/09/22 04:54:46;;;;;;;12.60;10.65;;;;;;;18.72;46.30;99898.50;5070912;28;20111;-81
2021/09/22 04:57:11;;;;;;;12.93;10.15;;;;;;;19.22;46.44;99968.75;5070865;28;20112;-81
2021/09/22 04:59:37;;;;;;;14.10;10.73;;;;;;;19.24;46.40;99972.03;5069500;28;20059;-81
2021/09/22 05:02:02;;;;;;;12.38;10.00;;;;;;;19.03;46.13;99937.69;5070715;28;20035;-81
2021/09/22 05:04:28;;;;;;;11.75;10.55;;;;;;;19.28;46.13;99981.25;5070684;28;20421;-80
2021/09/22 05:06:53;;;;;;;11.70;10.55;;;;;;;19.22;46.13;99981.31;5071018;28;20025;-81
2021/09/22 05:09:19;;;;;;;12.70;10.18;;;;;;;19.22;46.11;99986.69;5073744;28;20161;-81
2021/09/22 05:11:44;;;;;;;12.02;10.45;;;;;;;19.22;46.12;99989.34;5074369;28;20043;-81
2021/09/22 05:14:09;;;;;;;11.93;10.13;;;;;;;19.24;46.45;99990.75;5074381;28;20016;-81
2021/09/22 05:16:35;;;;;;;15.23;10.20;;;;;;;19.28;46.22;99999.97;5074011;28;20485;-81
2021/09/22 05:19:00;;;;;;;13.05;11.20;;;;;;;18.91;46.09;99929.59;5074283;28;20104;-81
2021/09/22 05:21:26;;;;;;;12.13;10.90;;;;;;;19.12;46.37;99965.78;5074141;28;20382;-81
2021/09/22 05:23:52;;;;;;;13.93;11.05;;;;;;;19.27;46.18;99979.59;5074231;28;20020;-75
2021/09/22 05:26:18;;;;;;;13.02;9.70;;;;;;;19.19;46.14;99973.75;5073999;28;20090;-75
2021/09/22 05:28:44;;;;;;;11.80;10.48;;;;;;;19.07;46.21;99946.91;5073925;28;20135;-76
2021/09/22 05:31:09;;;;;;;10.85;9.40;;;;;;;19.31;46.25;99983.47;5073917;28;20514;-75
2021/09/22 05:33:34;;;;;;;9.77;8.77;;;;;;;19.10;46.29;99951.00;5073153;28;20032;-76
2021/09/22 05:36:00;;;;;;;10.68;9.25;;;;;;;19.31;46.28;99983.47;5072761;28;20070;-75
2021/09/22 05:38:25;;;;;;;11.75;9.30;;;;;;;19.01;46.17;99931.75;5072818;28;20481;-77
2021/09/22 05:40:51;;;;;;;10.88;9.65;;;;;;;19.21;46.26;99964.44;5072522;28;20039;-75
2021/09/22 05:43:16;;;;;;;10.65;9.63;;;;;;;19.33;46.19;99994.00;5072783;28;20519;-76
2021/09/22 05:45:42;;;;;;;11.27;10.07;;;;;;;19.34;46.39;99979.56;5072480;28;20020;-75
2021/09/22 05:48:07;;;;;;;12.43;10.88;;;;;;;19.33;46.62;99991.31;5072579;28;20028;-76
2021/09/22 05:50:32;;;;;;;14.80;11.95;;;;;;;18.38;47.00;99828.47;5072388;28;20044;-75
2021/09/22 05:52:58;;;;;;;11.50;10.35;;;;;;;19.30;47.48;99979.16;5072268;28;20028;-76
2021/09/22 05:55:23;;;;;;;10.70;9.60;;;;;;;19.23;48.12;99972.25;5072482;28;20025;-75
2021/09/22 05:57:49;;;;;;;13.52;10.10;;;;;;;19.07;48.56;99943.41;5072508;28;20067;-75
2021/09/22 06:00:15;;;;;;;11.25;10.05;;;;;;;19.17;48.73;99962.44;5072062;28;20025;-75
2021/09/22 06:02:40;;;;;;;11.60;9.77;;;;;;;19.24;49.00;99976.56;5072153;28;21227;-76
2021/09/22 06:05:06;;;;;;;9.73;8.73;;;;;;;18.95;49.63;99957.53;5072202;28;20067;-76
2021/09/22 06:07:32;;;;;;;10.50;9.40;;;;;;;19.15;50.06;99973.38;5072417;28;20028;-76
2021/09/22 06:09:58;;;;;;;10.90;9.10;;;;;;;19.09;50.63;99968.09;5072081;28;20025;-75
2021/09/22 06:12:23;;;;;;;10.93;8.68;;;;;;;19.04;50.91;99966.09;5072283;28;20048;-75
2021/09/22 06:14:49;;;;;;;10.25;8.88;;;;;;;18.99;51.52;99958.72;5072381;28;20024;-76
2021/09/22 06:17:14;;;;;;;12.55;9.95;;;;;;;19.05;51.40;99973.06;5072199;28;20027;-75
2021/09/22 06:19:40;;;;;;;12.50;9.63;;;;;;;17.87;51.60;99783.34;5070654;28;20058;-76
2021/09/22 06:22:05;;;;;;;10.82;9.48;;;;;;;17.86;51.54;99775.53;5072072;28;20443;-76
2021/09/22 06:24:32;;;;;;;11.32;9.48;;;;;;;18.90;51.63;99937.84;5071831;28;20034;-75
2021/09/22 06:26:57;;;;;;;11.55;9.13;;;;;;;18.46;51.48;99867.47;5070674;28;20459;-75
2021/09/22 06:29:23;;;;;;;11.30;10.18;;;;;;;18.98;51.68;99948.25;5071675;28;20025;-75
2021/09/22 06:31:48;;;;;;;11.02;9.90;;;;;;;18.46;51.86;99867.47;5071916;28;20024;-76
2021/09/22 06:34:14;;;;;;;10.90;9.80;;;;;;;18.74;51.55;99907.13;5031168;28;1136761;-76
2021/09/22 06:36:39;;;;;;;13.75;10.55;;;;;;;19.01;51.71;99962.00;5071165;28;20028;-75
2021/09/22 06:39:06;;;;;;;13.82;12.40;;;;;;;18.34;51.59;99859.34;5072465;28;20108;-76
2021/09/22 06:41:33;;;;;;;13.05;10.60;;;;;;;18.95;51.69;99943.34;5072514;28;20028;-76
2021/09/22 06:44:00;;;;;;;13.07;11.02;;;;;;;19.00;51.51;99955.00;5072440;28;21059;-75
2021/09/22 06:46:25;;;;;;;14.60;11.18;;;;;;;19.02;51.38;99963.63;5072262;28;20048;-75
2021/09/22 06:48:51;;;;;;;13.27;11.43;;;;;;;19.07;51.42;99978.19;5072362;28;20056;-75
2021/09/22 06:51:18;;;;;;;12.57;10.18;;;;;;;18.74;51.05;99923.19;5072228;28;20484;-76
2021/09/22 06:53:44;;;;;;;10.70;9.60;;;;;;;19.11;50.78;99974.03;5072040;28;20463;-76
2021/09/22 06:56:10;;;;;;;10.70;9.60;;;;;;;18.78;50.81;99936.94;5072332;28;20452;-75
2021/09/22 06:58:35;;;;;;;10.70;9.60;;;;;;;19.03;50.44;99975.97;5072373;28;20024;-75
2021/09/22 07:01:01;;;;;;;10.35;9.25;;;;;;;19.17;50.49;99973.97;5072246;28;20024;-76
2021/09/22 07:03:26;;;;;;;12.15;9.85;;;;;;;18.88;50.40;99919.31;5072038;28;20524;-76
2021/09/22 07:05:52;;;;;;;12.30;10.07;;;;;;;19.03;50.26;99935.81;5071612;28;20024;-75
2021/09/22 07:08:17;;;;;;;13.95;10.98;;;;;;;18.34;50.17;99813.09;5071710;28;20489;-76
2021/09/22 07:10:43;;;;;;;11.15;9.30;;;;;;;19.40;49.80;99975.97;5071933;28;20024;-76
2021/09/22 07:13:09;;;;;;;11.80;10.50;;;;;;;18.39;49.48;99784.66;5071862;28;20028;-75
2021/09/22 07:15:35;;;;;;;13.55;10.68;;;;;;;19.60;48.73;99963.19;5070495;28;20089;-75
2021/09/22 07:18:00;;;;;;;12.15;10.95;;;;;;;19.64;48.43;99955.50;5071654;28;20024;-75
2021/09/22 07:20:26;;;;;;;14.43;12.90;;;;;;;19.68;48.38;99957.50;5071739;28;20154;-76
2021/09/22 07:22:52;;;;;;;12.93;11.45;;;;;;;19.83;48.37;99964.31;5071658;28;20028;-75
2021/09/22 07:25:17;;;;;;;13.55;10.00;;;;;;;19.90;48.25;99967.72;5071645;28;20024;-76
2021/09/22 07:27:43;;;;;;;12.40;10.00;;;;;;;19.85;47.87;99946.16;5071694;28;20025;-76
2021/09/22 07:30:13;;;;;;;13.02;11.32;;;;;;;20.00;47.11;99974.16;5071175;28;20028;-76
2021/09/22 07:32:40;;;;;;;10.80;9.70;;;;;;;20.00;47.58;100010.88;5071085;28;20165;-76
2021/09/22 07:35:06;;;;;;;11.27;10.05;;;;;;;20.00;47.38;99962.63;5071258;28;20032;-76
2021/09/22 07:37:31;;;;;;;11.23;10.13;;;;;;;19.94;47.62;99947.44;5071242;28;20043;-75
2021/09/22 07:39:57;;;;;;;11.82;10.55;;;;;;;20.06;47.61;99958.19;5071349;28;20103;-75
2021/09/22 07:42:22;;;;;;;11.65;9.70;;;;;;;20.15;47.34;99959.53;5071040;28;20023;-76
2021/09/22 07:44:49;;;;;;;10.88;9.77;;;;;;;20.23;47.10;99957.34;5071458;28;20023;-75
2021/09/22 07:47:16;;;;;;;13.18;11.63;;;;;;;20.18;46.79;99942.97;5071032;28;20073;-75
2021/09/22 07:49:43;;;;;;;13.40;10.73;;;;;;;20.18;46.55;99959.06;5070044;28;20416;-75
2021/09/22 07:52:10;;;;;;;13.77;12.23;;;;;;;20.12;46.39;99973.41;5071181;28;20389;-75
2021/09/22 07:54:37;;;;;;;13.20;11.73;;;;;;;20.11;46.50;99945.78;5070072;28;20021;-74
2021/09/22 07:57:02;;;;;;;13.18;11.77;;;;;;;20.07;46.31;99928.50;5071462;28;20031;-76
2021/09/22 07:59:29;;;;;;;14.95;12.18;;;;;;;20.18;46.33;99946.47;5071463;28;20024;-75
2021/09/22 08:01:55;;;;;;;12.90;11.70;;;;;;;20.06;45.83;99907.28;5071126;28;20024;-76
2021/09/22 08:04:20;;;;;;;14.68;13.20;;;;;;;20.11;45.65;99918.97;5070920;28;20489;-75
2021/09/22 08:06:46;;;;;;;12.57;11.27;;;;;;;20.24;45.61;99921.44;5071112;28;20054;-75
2021/09/22 08:09:12;;;;;;;12.35;11.18;;;;;;;20.36;45.55;99924.13;5070918;28;20504;-75
2021/09/22 08:11:37;;;;;;;12.75;10.50;;;;;;;20.40;45.58;99914.59;5071145;28;20074;-75
2021/09/22 08:14:03;;;;;;;12.93;11.63;;;;;;;20.41;45.33;99905.50;5071238;28;20107;-75
2021/09/22 08:16:28;;;;;;;13.15;11.32;;;;;;;20.39;45.26;99917.47;5070876;28;20099;-75
2021/09/22 08:18:53;;;;;;;12.70;11.40;;;;;;;20.14;45.22;99885.50;5071401;28;20032;-75
2021/09/22 08:21:19;;;;;;;11.82;10.63;;;;;;;19.88;45.02;99852.72;5071064;28;20103;-76
2021/09/22 08:23:44;;;;;;;13.25;11.90;;;;;;;19.76;44.98;99832.31;5071052;28;20027;-76
2021/09/22 08:26:10;;;;;;;12.10;10.90;;;;;;;19.58;45.14;99817.94;5070907;28;20036;-76
2021/09/22 08:28:35;;;;;;;12.95;11.65;;;;;;;20.10;44.80;99914.66;5070864;28;20562;-74
2021/09/22 08:31:01;;;;;;;12.88;11.68;;;;;;;20.03;44.87;99897.81;5070824;28;20024;-75
2021/09/22 08:33:27;;;;;;;14.27;12.77;;;;;;;20.12;44.69;99904.50;5070749;28;20048;-75
2021/09/22 08:35:52;;;;;;;22.70;19.30;;;;;;;20.14;44.69;99902.41;5071055;28;20020;-75
2021/09/22 08:38:18;;;;;;;15.93;13.65;;;;;;;20.15;44.65;99904.06;5070954;28;20012;-75
2021/09/22 08:40:43;;;;;;;14.02;12.65;;;;;;;20.12;44.36;99907.19;5070805;28;20031;-76
2021/09/22 08:43:10;;;;;;;14.80;13.27;;;;;;;20.08;44.34;99903.34;5072324;28;20073;-75
2021/09/22 08:45:36;;;;;;;13.98;12.35;;;;;;;18.85;44.67;99703.06;5074604;28;20036;-76
2021/09/22 08:48:03;;;;;;;14.13;12.70;;;;;;;20.06;44.56;99885.81;5074709;28;20100;-75
2021/09/22 08:50:28;;;;;;;14.57;12.90;;;;;;;20.11;44.25;99885.97;5074612;28;20497;-76
2021/09/22 08:52:54;;;;;;;13.75;12.25;;;;;;;20.13;43.86;99883.88;5073194;28;20027;-75
2021/09/22 08:55:19;;;;;;;13.52;12.13;;;;;;;20.15;43.54;99868.38;5074510;28;20024;-75
2021/09/22 08:57:45;;;;;;;12.25;10.95;;;;;;;20.11;42.90;99868.03;5074244;28;20028;-75
2021/09/22 09:00:13;;;;;;;12.23;10.40;;;;;;;19.99;42.49;99841.19;5074676;28;20017;-76
2021/09/22 09:02:47;;;;;;;11.50;10.40;;;;;;;19.40;41.48;99756.41;5074288;28;20020;-76
2021/09/22 09:05:15;;;;;;;11.13;10.02;;;;;;;19.99;41.24;99840.38;5074161;28;20020;-75
2021/09/22 09:07:50;;;;;;;13.00;11.60;;;;;;;19.59;39.97;99760.66;5074307;28;20017;-75
2021/09/22 09:10:17;;;;;;;14.23;11.30;;;;;;;20.19;40.15;99883.78;5074066;28;20099;-75
2021/09/22 09:12:43;;;;;;;14.75;13.23;;;;;;;19.41;39.87;99717.88;5074124;28;20032;-75
2021/09/22 09:15:11;;;;;;;11.38;9.68;;;;;;;20.19;39.90;99840.88;5074054;28;20016;-75
2021/09/22 09:17:46;;;;;;;11.10;10.00;;;;;;;20.37;39.68;99856.03;5074136;28;20054;-75
2021/09/22 09:20:16;;;;;;;10.75;9.70;;;;;;;20.44;39.91;99846.03;5074073;28;20120;-75
2021/09/22 09:22:54;;;;;;;13.75;11.27;;;;;;;19.25;39.39;99651.59;5074338;28;20035;-74
2021/09/22 09:25:23;;;;;;;13.23;11.55;;;;;;;20.37;39.42;99825.72;5073979;28;20032;-75
2021/09/22 09:27:49;;;;;;;12.23;11.05;;;;;;;20.51;39.53;99844.03;5073614;28;20559;-76
2021/09/22 09:30:17;;;;;;;12.68;11.48;;;;;;;20.55;39.06;99841.69;5073832;28;20048;-76
2021/09/22 09:32:43;;;;;;;14.60;12.85;;;;;;;19.75;38.98;99716.28;5073642;28;20183;-74
2021/09/22 09:35:09;;;;;;;11.32;10.32;;;;;;;20.53;39.09;99841.09;5073836;28;20024;-75
2021/09/22 09:37:37;;;;;;;11.73;10.48;;;;;;;20.31;38.98;99798.78;5073988;28;20496;-77
2021/09/22 09:40:18;;;;;;;11.70;10.50;;;;;;;20.53;37.80;99830.38;5073653;28;20020;-76
2021/09/22 09:42:45;;;;;;;10.82;9.82;;;;;;;20.46;38.69;99843.09;5073551;28;20074;-75
2021/09/22 09:45:12;;;;;;;10.57;9.48;;;;;;;20.40;38.60;99828.75;5073578;28;20016;-76
2021/09/22 09:47:37;;;;;;;12.35;11.00;;;;;;;20.24;38.06;99832.94;5072235;28;20425;-77
2021/09/22 09:50:17;;;;;;;10.10;8.80;;;;;;;20.14;36.89;99821.19;5073604;28;20024;-75
2021/09/22 09:52:54;;;;;;;10.25;8.93;;;;;;;20.06;36.92;99814.28;5073381;28;20090;-76
2021/09/22 09:55:23;;;;;;;10.57;9.57;;;;;;;19.23;37.28;99696.53;5089048;28;20482;-76
2021/09/22 09:57:53;;;;;;;9.40;8.38;;;;;;;19.77;37.39;99805.28;5093704;28;20480;-76
2021/09/22 10:00:43;;;;;;;16.23;14.50;;;;;;;19.71;37.12;99794.69;5093724;28;20027;-76
2021/09/22 10:03:10;;;;;;;11.15;10.05;;;;;;;19.88;36.96;99827.78;5093378;28;20694;-77
2021/09/22 10:05:35;;;;;;;12.15;10.27;;;;;;;19.84;36.68;99823.94;5093414;28;20056;-74
2021/09/22 10:08:01;;;;;;;9.60;8.18;;;;;;;19.85;36.64;99815.66;5093555;28;20059;-76
2021/09/22 10:10:27;;;;;;;8.10;7.22;;;;;;;19.88;36.28;99817.88;5093306;28;20031;-75
2021/09/22 10:12:53;;;;;;;8.75;7.95;;;;;;;19.89;35.99;99807.97;5093263;28;20031;-75
2021/09/22 10:15:18;;;;;;;8.80;8.00;;;;;;;19.90;36.28;99809.59;5093354;28;20020;-76
2021/09/22 10:17:45;;;;;;;9.85;7.55;;;;;;;19.83;35.54;99816.94;5093184;28;20030;-76
2021/09/22 10:20:11;;;;;;;9.30;8.10;;;;;;;19.65;35.61;99807.13;5093178;28;20028;-76
2021/09/22 10:22:37;;;;;;;8.18;7.38;;;;;;;19.42;35.65;99757.00;5093173;28;20027;-75
2021/09/22 10:25:05;;;;;;;9.52;7.57;;;;;;;19.20;35.54;99751.34;5092944;28;20156;-76
2021/09/22 10:27:31;;;;;;;11.15;10.00;;;;;;;19.22;35.68;99735.03;5092854;28;20068;-75
2021/09/22 10:30:01;;;;;;;11.75;9.82;;;;;;;19.75;35.38;99809.25;5092864;28;20024;-75
2021/09/22 10:32:40;;;;;;;10.90;8.50;;;;;;;19.71;35.33;99810.75;5092818;28;20432;-75
2021/09/22 10:35:20;;;;;;;9.23;8.32;;;;;;;19.65;35.17;99813.31;5092860;28;20020;-76
2021/09/22 10:37:46;;;;;;;9.45;7.45;;;;;;;19.46;35.78;99790.31;5092661;28;20024;-75
2021/09/22 10:40:33;;;;;;;12.93;8.85;;;;;;;19.59;35.90;99811.53;5092860;28;20420;-76
2021/09/22 10:43:13;;;;;;;9.70;8.20;;;;;;;19.59;34.72;99805.38;5092924;28;20064;-75
2021/09/22 10:45:38;;;;;;;9.90;7.55;;;;;;;19.41;35.68;99768.75;5092800;28;20024;-76
2021/09/22 10:48:16;;;;;;;7.63;6.95;;;;;;;19.20;35.22;99724.56;5092614;28;20036;-75
2021/09/22 10:50:42;;;;;;;7.13;6.53;;;;;;;19.73;35.67;99795.25;5092662;28;20436;-76
2021/09/22 10:53:32;;;;;;;10.32;6.82;;;;;;;19.71;35.11;99800.03;5092371;28;20034;-76
2021/09/22 10:56:05;;;;;;;8.02;7.30;;;;;;;19.67;34.51;99799.69;5092606;28;20024;-76
2021/09/22 10:58:46;;;;;;;6.88;6.22;;;;;;;19.50;35.41;99796.81;5092617;28;20435;-74
2021/09/22 11:01:31;;;;;;;7.25;6.63;;;;;;;19.55;35.15;99797.00;5092336;28;20028;-76
2021/09/22 11:04:18;;;;;;;23.08;18.73;;;;;;;19.59;35.27;99792.81;5092250;28;20024;-76
2021/09/22 11:06:43;;;;;;;10.13;9.13;;;;;;;19.62;35.30;99795.00;5091528;28;20424;-76
2021/09/22 11:09:18;;;;;;;10.25;8.18;;;;;;;19.56;35.01;99787.09;5092309;28;20028;-75
2021/09/22 11:12:03;;;;;;;9.18;8.27;;;;;;;19.51;34.96;99789.59;5092095;28;20539;-75
2021/09/22 11:14:30;;;;;;;8.73;7.40;;;;;;;19.54;35.08;99783.81;5092152;28;20012;-76
2021/09/22 11:17:03;;;;;;;10.05;7.28;;;;;;;19.52;34.69;99778.69;5090909;28;20457;-77
2021/09/22 11:19:30;;;;;;;9.18;7.97;;;;;;;19.50;35.02;99770.03;5092104;28;20024;-74
2021/09/22 11:21:57;;;;;;;10.52;8.15;;;;;;;19.45;34.88;99777.97;5092032;28;20023;-75